createdAt,value
2022-10-06T00:02:23.748Z,51.50
2022-10-06T00:04:50.706Z,51.40
2022-10-06T00:07:17.501Z,51.40
2022-10-06T00:09:44.339Z,51.40
2022-10-06T00:12:15.422Z,51.20
2022-10-06T00:14:46.085Z,51.20
2022-10-06T00:17:12.952Z,51.30
2022-10-06T00:19:39.812Z,51.30
2022-10-06T00:22:06.705Z,51.30
2022-10-06T00:24:34.369Z,51.30
2022-10-06T00:27:01.369Z,51.40
2022-10-06T00:29:28.215Z,51.40
2022-10-06T00:31:55.325Z,51.40
2022-10-06T00:34:22.221Z,51.40
2022-10-06T00:36:49.281Z,51.40
2022-10-06T00:39:16.114Z,51.30
2022-10-06T00:41:43.133Z,51.50
2022-10-06T00:44:09.993Z,51.50
2022-10-06T00:46:41.156Z,51.50
2022-10-06T00:49:37.884Z,51.40
2022-10-06T00:52:07.221Z,51.60
2022-10-06T00:54:34.771Z,51.50
2022-10-06T00:57:02.125Z,51.60
2022-10-06T00:59:29.046Z,51.60
2022-10-06T01:02:04.287Z,51.70
2022-10-06T01:04:40.395Z,51.60
2022-10-06T01:07:07.853Z,51.70
2022-10-06T01:09:36.751Z,51.60
2022-10-06T01:12:05.508Z,51.60
2022-10-06T01:14:33.134Z,51.50
2022-10-06T01:17:02.878Z,51.70
2022-10-06T01:19:32.690Z,51.70
2022-10-06T01:22:04.639Z,51.90
2022-10-06T01:24:33.243Z,52.00
2022-10-06T01:27:01.123Z,52.00
2022-10-06T01:29:28.323Z,52.10
2022-10-06T01:31:55.417Z,52.00
2022-10-06T01:34:22.751Z,51.90
2022-10-06T01:36:49.653Z,51.90
2022-10-06T01:39:16.924Z,52.00
2022-10-06T01:41:45.448Z,52.10
2022-10-06T01:44:12.342Z,52.00
2022-10-06T01:46:39.346Z,52.10
2022-10-06T01:49:06.307Z,52.40
2022-10-06T01:51:34.516Z,52.40
2022-10-06T01:54:01.439Z,52.30
2022-10-06T01:56:28.497Z,52.30
2022-10-06T01:58:55.305Z,53.00
2022-10-06T02:01:22.512Z,52.50
2022-10-06T02:03:49.452Z,52.70
2022-10-06T02:06:17.503Z,52.80
2022-10-06T02:08:44.540Z,52.80
2022-10-06T02:11:12.230Z,52.90
2022-10-06T02:13:42.414Z,52.90
2022-10-06T02:16:10.095Z,52.90
2022-10-06T02:18:37.212Z,52.90
2022-10-06T02:21:04.873Z,53.00
2022-10-06T02:23:32.181Z,53.10
2022-10-06T02:25:59.979Z,53.10
2022-10-06T02:28:28.283Z,53.20
2022-10-06T02:30:59.684Z,53.10
2022-10-06T02:33:26.549Z,53.20
2022-10-06T02:35:56.723Z,53.20
2022-10-06T02:38:25.285Z,53.20
2022-10-06T02:40:53.584Z,53.20
2022-10-06T02:43:21.969Z,53.20
2022-10-06T02:45:56.081Z,53.40
2022-10-06T02:48:24.685Z,53.40
2022-10-06T02:50:55.392Z,53.50
2022-10-06T02:53:23.204Z,53.60
2022-10-06T02:55:51.077Z,53.70
2022-10-06T02:58:18.059Z,53.60
2022-10-06T03:00:45.067Z,53.70
2022-10-06T03:03:12.026Z,53.90
2022-10-06T03:05:39.167Z,53.90
2022-10-06T03:08:06.059Z,53.90
2022-10-06T03:10:33.042Z,53.80
2022-10-06T03:12:59.910Z,54.00
2022-10-06T03:15:28.792Z,53.90
2022-10-06T03:17:56.489Z,53.90
2022-10-06T03:20:23.454Z,53.80
2022-10-06T03:22:53.069Z,53.90
2022-10-06T03:25:20.380Z,53.80
2022-10-06T03:27:47.487Z,53.90
2022-10-06T03:30:15.014Z,53.90
2022-10-06T03:32:41.834Z,54.10
2022-10-06T03:35:11.003Z,54.30
2022-10-06T03:37:38.174Z,54.40
2022-10-06T03:40:05.734Z,54.30
2022-10-06T03:42:32.623Z,54.10
2022-10-06T03:44:59.486Z,54.20
2022-10-06T03:47:26.394Z,54.30
2022-10-06T03:49:53.282Z,54.30
2022-10-06T03:52:27.938Z,54.20
2022-10-06T03:54:54.975Z,54.30
2022-10-06T03:57:22.488Z,54.30
2022-10-06T03:59:50.245Z,54.20
2022-10-06T04:02:17.189Z,54.10
2022-10-06T04:04:44.167Z,54.10
2022-10-06T04:07:12.022Z,54.10
2022-10-06T04:09:39.736Z,54.20
2022-10-06T04:12:08.572Z,54.20
2022-10-06T04:14:37.660Z,54.80
2022-10-06T04:17:06.279Z,54.40
2022-10-06T04:19:40.727Z,54.50
2022-10-06T04:22:07.984Z,54.50
2022-10-06T04:24:35.580Z,54.60
2022-10-06T04:27:21.810Z,54.80
2022-10-06T04:29:57.142Z,55.10
2022-10-06T04:32:24.504Z,55.40
2022-10-06T04:34:51.710Z,55.70
2022-10-06T04:37:18.677Z,55.60
2022-10-06T04:39:45.782Z,55.40
2022-10-06T04:42:13.006Z,55.40
2022-10-06T04:44:40.202Z,55.30
2022-10-06T04:47:07.411Z,55.30
2022-10-06T04:49:34.402Z,55.20
2022-10-06T04:52:01.988Z,55.40
2022-10-06T04:54:33.927Z,55.30
2022-10-06T04:57:03.140Z,55.40
2022-10-06T04:59:50.265Z,55.50
2022-10-06T05:02:19.265Z,55.50
2022-10-06T05:04:49.836Z,55.50
2022-10-06T05:07:17.445Z,55.50
2022-10-06T05:09:45.007Z,55.70
2022-10-06T05:12:12.684Z,55.90
2022-10-06T05:14:40.557Z,56.00
2022-10-06T05:17:07.805Z,56.00
2022-10-06T05:19:36.421Z,56.00
2022-10-06T05:22:03.678Z,55.90
2022-10-06T05:24:32.134Z,55.80
2022-10-06T05:27:02.210Z,55.90
2022-10-06T05:29:29.530Z,55.90
2022-10-06T05:31:57.260Z,56.10
2022-10-06T05:34:25.412Z,56.20
2022-10-06T05:36:52.922Z,56.30
2022-10-06T05:39:19.735Z,56.30
2022-10-06T05:41:50.440Z,56.30
2022-10-06T05:44:17.621Z,57.00
2022-10-06T05:46:45.445Z,56.40
2022-10-06T05:49:13.457Z,56.40
2022-10-06T05:51:54.933Z,56.40
2022-10-06T05:54:25.669Z,56.50
2022-10-06T05:57:56.114Z,56.40
2022-10-06T06:00:23.735Z,56.40
2022-10-06T06:02:50.720Z,56.40
2022-10-06T06:05:18.093Z,56.40
2022-10-06T06:07:44.995Z,56.40
2022-10-06T06:10:11.856Z,56.40
2022-10-06T06:12:38.897Z,56.50
2022-10-06T06:15:47.458Z,56.50
2022-10-06T06:18:14.638Z,56.50
2022-10-06T06:20:42.033Z,56.50
2022-10-06T06:23:09.643Z,56.50
2022-10-06T06:25:36.932Z,56.60
2022-10-06T06:28:06.499Z,56.70
2022-10-06T06:30:34.849Z,56.70
2022-10-06T06:33:01.752Z,56.80
2022-10-06T06:35:28.630Z,56.80
2022-10-06T06:37:55.848Z,56.90
2022-10-06T06:40:25.994Z,56.90
2022-10-06T06:42:54.021Z,57.00
2022-10-06T06:45:44.205Z,57.00
2022-10-06T06:48:24.026Z,57.00
2022-10-06T06:50:58.510Z,57.00
2022-10-06T06:53:27.114Z,57.00
2022-10-06T06:55:58.054Z,57.00
2022-10-06T06:58:25.092Z,57.10
2022-10-06T07:00:52.113Z,57.20
2022-10-06T07:03:38.439Z,57.30
2022-10-06T07:06:12.215Z,57.30
2022-10-06T07:08:44.022Z,57.20
2022-10-06T07:11:12.190Z,57.20
2022-10-06T07:13:39.553Z,57.20
2022-10-06T07:16:25.388Z,57.10
2022-10-06T07:19:11.528Z,57.20
2022-10-06T07:21:57.267Z,57.20
2022-10-06T07:24:43.603Z,57.30
2022-10-06T07:27:10.935Z,57.30
2022-10-06T07:29:37.909Z,57.90
2022-10-06T07:32:04.869Z,57.40
2022-10-06T07:34:31.832Z,57.40
2022-10-06T07:37:02.814Z,57.50
2022-10-06T07:39:35.143Z,57.50
2022-10-06T07:42:02.971Z,57.50
2022-10-06T07:44:30.392Z,57.50
2022-10-06T07:46:57.361Z,57.50
2022-10-06T07:49:46.429Z,57.60
2022-10-06T07:52:13.946Z,57.60
2022-10-06T07:54:41.468Z,57.70
2022-10-06T07:57:35.201Z,57.60
2022-10-06T08:01:16.937Z,57.70
2022-10-06T08:06:30.455Z,58.00
2022-10-06T08:09:06.219Z,58.20
2022-10-06T08:11:40.911Z,58.30
2022-10-06T08:17:11.817Z,58.40
2022-10-06T08:19:45.640Z,58.40
2022-10-06T08:22:21.666Z,58.40
2022-10-06T08:25:24.547Z,58.40
2022-10-06T08:41:28.183Z,58.70
2022-10-06T08:43:57.031Z,58.70
2022-10-06T08:46:29.946Z,58.60
2022-10-06T08:48:58.456Z,58.70
2022-10-06T08:51:51.329Z,59.10
2022-10-06T08:54:31.228Z,59.60
2022-10-06T08:57:11.434Z,59.80
2022-10-06T08:59:45.189Z,59.70
2022-10-06T09:02:29.978Z,59.30
2022-10-06T09:05:03.202Z,58.90
2022-10-06T09:07:40.957Z,58.60
2022-10-06T09:10:20.025Z,58.80
2022-10-06T09:12:52.117Z,58.80
2022-10-06T09:15:39.806Z,58.70
2022-10-06T09:18:10.648Z,58.60
2022-10-06T09:20:52.727Z,58.30
2022-10-06T09:23:40.658Z,58.30
2022-10-06T09:26:14.789Z,58.60
2022-10-06T09:28:47.294Z,59.10
2022-10-06T09:31:31.253Z,58.30
2022-10-06T09:34:04.769Z,58.20
2022-10-06T09:36:45.919Z,57.70
2022-10-06T09:39:30.299Z,57.30
2022-10-06T09:42:04.772Z,57.00
2022-10-06T09:44:45.818Z,56.90
2022-10-06T09:47:28.866Z,57.00
2022-10-06T09:50:16.365Z,57.30
2022-10-06T09:53:01.483Z,57.40
2022-10-06T09:55:32.437Z,57.30
2022-10-06T09:58:06.179Z,57.60
2022-10-06T10:00:37.637Z,57.50
2022-10-06T10:03:09.318Z,57.40
2022-10-06T10:05:40.227Z,57.70
2022-10-06T10:08:13.962Z,58.00
2022-10-06T10:10:41.223Z,58.30
2022-10-06T10:13:21.027Z,58.00
2022-10-06T10:15:57.055Z,57.90
2022-10-06T10:18:31.141Z,58.20
2022-10-06T10:21:03.122Z,58.50
2022-10-06T10:23:36.216Z,58.50
2022-10-06T10:26:36.749Z,58.40
2022-10-06T10:29:18.520Z,57.90
2022-10-06T10:31:57.943Z,57.50
2022-10-06T10:34:28.447Z,57.60
2022-10-06T10:37:04.763Z,57.80
2022-10-06T10:39:40.167Z,57.90
2022-10-06T10:42:21.279Z,57.50
2022-10-06T10:44:55.919Z,57.30
2022-10-06T10:47:26.104Z,57.20
2022-10-06T10:50:00.771Z,57.00
2022-10-06T10:52:33.172Z,56.80
2022-10-06T10:55:19.918Z,56.60
2022-10-06T10:57:49.808Z,56.70
2022-10-06T11:00:23.187Z,56.30
2022-10-06T11:02:58.749Z,56.10
2022-10-06T11:08:56.515Z,54.90
2022-10-06T11:11:26.805Z,54.60
2022-10-06T11:14:03.814Z,55.30
2022-10-06T11:16:45.190Z,55.60
2022-10-06T11:19:45.027Z,55.60
2022-10-06T11:22:56.424Z,55.80
2022-10-06T11:25:42.535Z,56.40
2022-10-06T11:28:19.912Z,56.80
2022-10-06T11:31:03.637Z,56.80
2022-10-06T11:33:47.052Z,56.70
2022-10-06T11:36:19.837Z,56.40
2022-10-06T11:38:52.261Z,56.50
2022-10-06T11:41:23.424Z,56.30
2022-10-06T11:44:14.395Z,56.20
2022-10-06T11:46:48.021Z,56.00
2022-10-06T11:49:31.674Z,56.00
2022-10-06T11:52:00.873Z,55.60
2022-10-06T11:54:50.217Z,55.20
2022-10-06T11:57:29.305Z,54.30
2022-10-06T12:00:10.530Z,53.60
2022-10-06T12:02:41.721Z,52.90
2022-10-06T12:08:01.681Z,52.60
2022-10-06T12:10:28.657Z,52.50
2022-10-06T12:13:21.251Z,52.30
2022-10-06T12:19:24.551Z,52.70
2022-10-06T12:21:51.513Z,52.80
2022-10-06T12:24:35.023Z,52.70
2022-10-06T12:27:01.938Z,52.80
2022-10-06T12:29:29.470Z,53.10
2022-10-06T12:32:08.696Z,53.40
2022-10-06T12:34:42.111Z,53.60
2022-10-06T12:37:32.975Z,53.20
2022-10-06T12:40:18.802Z,52.90
2022-10-06T12:42:45.885Z,52.90
2022-10-06T12:45:15.650Z,53.00
2022-10-06T12:47:43.694Z,53.30
2022-10-06T12:50:17.398Z,53.50
2022-10-06T12:53:05.528Z,53.50
2022-10-06T12:55:56.318Z,53.80
2022-10-06T13:01:21.880Z,56.20
2022-10-06T13:03:59.660Z,56.80
2022-10-06T13:06:41.347Z,57.50
2022-10-06T13:13:00.804Z,58.40
2022-10-06T13:18:07.967Z,57.10
2022-10-06T13:20:48.309Z,57.50
2022-10-06T13:23:15.394Z,57.50
2022-10-06T13:25:42.262Z,57.30
2022-10-06T13:28:24.428Z,57.00
2022-10-06T13:30:52.373Z,56.60
2022-10-06T13:33:20.378Z,55.80
2022-10-06T13:35:49.881Z,55.40
2022-10-06T13:38:17.088Z,55.30
2022-10-06T13:40:45.201Z,55.00
2022-10-06T13:43:17.291Z,54.80
2022-10-06T13:45:45.825Z,54.70
2022-10-06T13:48:18.138Z,54.50
2022-10-06T13:50:46.345Z,54.30
2022-10-06T13:53:23.959Z,53.90
2022-10-06T13:55:51.001Z,53.50
2022-10-06T13:58:19.109Z,53.50
2022-10-06T14:00:48.822Z,53.30
2022-10-06T14:03:42.189Z,53.10
2022-10-06T14:06:17.624Z,53.10
2022-10-06T14:08:50.694Z,52.90
2022-10-06T14:11:22.249Z,52.50
2022-10-06T14:13:59.474Z,52.30
2022-10-06T14:16:27.456Z,52.00
2022-10-06T14:21:45.047Z,51.80
2022-10-06T14:24:21.136Z,51.80
2022-10-06T14:26:55.752Z,51.70
2022-10-06T14:29:26.483Z,51.60
2022-10-06T14:31:53.391Z,51.60
2022-10-06T14:34:21.889Z,51.60
2022-10-06T14:36:51.797Z,51.50
2022-10-06T14:39:19.683Z,51.60
2022-10-06T14:41:46.614Z,51.70
2022-10-06T14:44:15.271Z,51.70
2022-10-06T14:46:43.530Z,51.60
2022-10-06T14:49:11.748Z,51.70
2022-10-06T14:51:39.347Z,51.70
2022-10-06T14:54:07.366Z,51.80
2022-10-06T14:56:36.310Z,52.00
2022-10-06T14:59:28.533Z,52.10
2022-10-06T15:02:08.768Z,51.90
2022-10-06T15:04:46.024Z,51.50
2022-10-06T15:07:47.975Z,52.00
2022-10-06T15:10:51.824Z,52.70
2022-10-06T15:13:35.739Z,53.70
2022-10-06T15:16:19.604Z,54.00
2022-10-06T15:18:58.505Z,54.10
2022-10-06T15:21:31.911Z,54.10
2022-10-06T15:27:07.091Z,53.40
2022-10-06T15:29:45.324Z,53.00
2022-10-06T15:32:15.800Z,52.10
2022-10-06T15:34:49.404Z,51.90
2022-10-06T15:37:25.069Z,51.90
2022-10-06T15:40:03.423Z,51.90
2022-10-06T15:42:47.617Z,51.90
2022-10-06T15:48:17.218Z,51.70
2022-10-06T15:50:59.630Z,51.40
2022-10-06T15:59:15.541Z,50.60
2022-10-06T16:01:58.146Z,50.30
2022-10-06T16:04:46.209Z,50.20
2022-10-06T16:07:14.396Z,50.10
2022-10-06T16:09:49.814Z,50.00
2022-10-06T16:12:19.788Z,50.00
2022-10-06T16:14:46.683Z,50.00
2022-10-06T16:17:18.019Z,50.00
2022-10-06T16:19:45.266Z,49.90
2022-10-06T16:22:16.346Z,50.00
2022-10-06T16:24:44.441Z,50.10
2022-10-06T16:27:12.868Z,50.20
2022-10-06T16:29:39.830Z,50.40
2022-10-06T16:32:06.673Z,50.50
2022-10-06T16:34:33.733Z,50.70
2022-10-06T16:37:02.077Z,50.80
2022-10-06T16:39:29.855Z,50.90
2022-10-06T16:41:57.277Z,50.80
2022-10-06T16:44:24.125Z,51.00
2022-10-06T16:46:51.129Z,50.90
2022-10-06T16:49:18.191Z,50.90
2022-10-06T16:51:48.603Z,50.90
2022-10-06T16:54:17.115Z,50.90
2022-10-06T16:56:48.664Z,50.90
2022-10-06T16:59:19.890Z,51.00
2022-10-06T17:01:47.234Z,51.20
2022-10-06T17:04:15.274Z,51.30
2022-10-06T17:06:50.254Z,51.30
2022-10-06T17:09:18.224Z,51.20
2022-10-06T17:11:46.989Z,51.30
2022-10-06T17:14:14.336Z,51.30
2022-10-06T17:16:43.353Z,51.30
2022-10-06T17:19:11.995Z,51.30
2022-10-06T17:21:47.681Z,51.40
2022-10-06T17:24:18.135Z,51.50
2022-10-06T17:26:48.012Z,51.60
2022-10-06T17:29:19.222Z,51.70
2022-10-06T17:31:47.646Z,51.80
2022-10-06T17:34:20.466Z,51.90
2022-10-06T17:36:49.170Z,52.00
2022-10-06T17:39:18.059Z,52.10
2022-10-06T17:41:46.346Z,52.10
2022-10-06T17:44:16.903Z,52.10
2022-10-06T17:46:45.366Z,52.10
2022-10-06T17:49:13.262Z,52.20
2022-10-06T17:51:40.896Z,52.20
2022-10-06T17:54:12.450Z,52.20
2022-10-06T17:56:40.675Z,52.10
2022-10-06T17:59:11.443Z,52.10
2022-10-06T18:01:38.986Z,52.00
2022-10-06T18:04:06.782Z,51.90
2022-10-06T18:06:35.099Z,51.80
2022-10-06T18:09:06.007Z,51.70
2022-10-06T18:11:33.870Z,51.70
2022-10-06T18:14:01.704Z,51.60
2022-10-06T18:16:31.195Z,51.80
2022-10-06T18:19:02.892Z,52.50
2022-10-06T18:21:35.338Z,52.00
2022-10-06T18:24:03.097Z,52.20
2022-10-06T18:26:30.133Z,52.40
2022-10-06T18:28:57.028Z,52.50
2022-10-06T18:31:23.946Z,52.50
2022-10-06T18:36:41.855Z,52.70
2022-10-06T18:39:09.593Z,52.90
2022-10-06T18:41:36.893Z,53.10
2022-10-06T18:44:07.271Z,53.20
2022-10-06T18:46:54.508Z,53.30
2022-10-06T18:49:26.747Z,53.40
2022-10-06T18:51:58.137Z,53.40
2022-10-06T18:54:31.623Z,53.40
2022-10-06T18:56:58.650Z,53.40
2022-10-06T18:59:27.183Z,53.40
2022-10-06T19:01:56.266Z,53.40
2022-10-06T19:04:24.043Z,54.00
2022-10-06T19:06:52.384Z,53.40
2022-10-06T19:09:24.003Z,53.30
2022-10-06T19:11:52.789Z,53.30
2022-10-06T19:14:20.834Z,53.30
2022-10-06T19:16:48.750Z,53.40
2022-10-06T19:19:17.317Z,53.30
2022-10-06T19:21:48.345Z,53.30
2022-10-06T19:24:20.741Z,53.20
2022-10-06T19:27:01.900Z,53.20
2022-10-06T19:29:37.796Z,53.20
2022-10-06T19:32:09.822Z,53.30
2022-10-06T19:34:49.889Z,53.50
2022-10-06T19:40:01.913Z,53.60
2022-10-06T19:43:06.008Z,53.60
2022-10-06T19:46:00.654Z,53.70
2022-10-06T19:48:36.468Z,53.70
2022-10-06T19:51:14.430Z,53.80
2022-10-06T19:53:41.753Z,54.00
2022-10-06T19:56:08.774Z,54.10
2022-10-06T19:58:35.747Z,54.10
2022-10-06T20:01:04.260Z,54.10
2022-10-06T20:03:31.954Z,54.00
2022-10-06T20:06:03.146Z,54.00
2022-10-06T20:08:30.391Z,54.10
2022-10-06T20:11:05.444Z,54.10
2022-10-06T20:13:32.910Z,54.00
2022-10-06T20:16:04.166Z,53.90
2022-10-06T20:18:35.463Z,53.90
2022-10-06T20:21:03.217Z,54.10
2022-10-06T20:23:30.093Z,54.10
2022-10-06T20:26:06.610Z,54.10
2022-10-06T20:28:33.934Z,54.10
2022-10-06T20:31:00.957Z,54.00
2022-10-06T20:33:27.983Z,54.10
2022-10-06T20:35:54.824Z,54.10
2022-10-06T20:38:41.648Z,54.20
2022-10-06T20:41:08.457Z,54.20
2022-10-06T20:43:35.559Z,54.30
2022-10-06T20:46:02.501Z,54.40
2022-10-06T20:48:29.621Z,54.50
2022-10-06T20:50:57.792Z,54.40
2022-10-06T20:53:27.480Z,54.40
2022-10-06T20:55:54.693Z,54.50
2022-10-06T20:58:21.537Z,54.50
2022-10-06T21:00:48.475Z,54.40
2022-10-06T21:03:17.391Z,54.40
2022-10-06T21:05:51.094Z,54.40
2022-10-06T21:08:18.173Z,54.60
2022-10-06T21:10:46.291Z,54.60
2022-10-06T21:13:13.313Z,54.60
2022-10-06T21:15:45.441Z,54.50
2022-10-06T21:18:12.537Z,54.30
2022-10-06T21:20:43.099Z,54.20
2022-10-06T21:23:13.399Z,54.30
2022-10-06T21:25:40.331Z,54.20
2022-10-06T21:28:07.345Z,54.20
2022-10-06T21:30:34.563Z,54.20
2022-10-06T21:33:01.613Z,54.30
2022-10-06T21:35:28.557Z,54.30
2022-10-06T21:37:55.474Z,54.30
2022-10-06T21:40:22.462Z,54.40
2022-10-06T21:42:49.403Z,54.30
2022-10-06T21:45:16.475Z,54.30
2022-10-06T21:47:43.583Z,54.40
2022-10-06T21:50:10.749Z,54.50
2022-10-06T21:52:37.703Z,54.60
2022-10-06T21:55:04.965Z,54.80
2022-10-06T21:57:31.949Z,55.00
2022-10-06T21:59:59.503Z,55.20
2022-10-06T22:02:28.707Z,55.40
2022-10-06T22:04:55.732Z,55.60
2022-10-06T22:07:22.708Z,55.70
2022-10-06T22:09:49.738Z,55.70
2022-10-06T22:12:16.721Z,55.70
2022-10-06T22:14:43.702Z,55.80
2022-10-06T22:17:10.720Z,55.80
2022-10-06T22:19:37.648Z,55.80
2022-10-06T22:22:04.636Z,55.70
2022-10-06T22:24:31.666Z,55.70
2022-10-06T22:27:01.692Z,55.70
2022-10-06T22:29:28.702Z,55.70
2022-10-06T22:31:57.824Z,55.70
2022-10-06T22:34:24.913Z,55.70
2022-10-06T22:36:51.915Z,55.70
2022-10-06T22:39:18.958Z,55.80
2022-10-06T22:41:45.962Z,55.90
2022-10-06T22:44:12.902Z,55.90
2022-10-06T22:46:40.042Z,55.90
2022-10-06T22:49:07.160Z,55.80
2022-10-06T22:51:34.463Z,55.80
2022-10-06T22:54:01.727Z,55.80
2022-10-06T22:56:29.776Z,55.80
2022-10-06T22:59:00.083Z,55.80
2022-10-06T23:01:28.053Z,55.80
2022-10-06T23:03:55.785Z,55.80
2022-10-06T23:06:23.090Z,55.60
2022-10-06T23:08:50.060Z,55.50
2022-10-06T23:11:18.309Z,55.40
2022-10-06T23:13:45.431Z,55.50
2022-10-06T23:16:13.820Z,55.60
2022-10-06T23:18:41.400Z,55.60
2022-10-06T23:21:08.369Z,55.70
2022-10-06T23:23:35.753Z,55.80
2022-10-06T23:26:13.275Z,55.80
2022-10-06T23:28:41.658Z,55.90
2022-10-06T23:31:10.237Z,55.90
2022-10-06T23:33:37.437Z,55.90
2022-10-06T23:36:05.971Z,56.10
2022-10-06T23:38:33.784Z,56.20
2022-10-06T23:41:00.765Z,56.30
2022-10-06T23:43:27.888Z,56.30
2022-10-06T23:45:55.058Z,56.20
2022-10-06T23:48:22.260Z,56.20
2022-10-06T23:50:56.506Z,56.30
2022-10-06T23:53:23.547Z,56.30
2022-10-06T23:55:50.584Z,56.20
2022-10-06T23:58:17.562Z,56.20
